createdAt,value
2023-03-15T00:01:18.459Z,11.97
2023-03-15T00:03:47.505Z,9.63
2023-03-15T00:06:15.823Z,9.60
2023-03-15T00:08:47.814Z,11.87
2023-03-15T00:11:16.838Z,10.70
2023-03-15T00:13:45.317Z,13.00
2023-03-15T00:16:17.550Z,14.13
2023-03-15T00:18:46.886Z,11.83
2023-03-15T00:21:15.194Z,14.07
2023-03-15T00:23:43.088Z,9.93
2023-03-15T00:26:11.220Z,13.50
2023-03-15T00:28:39.705Z,10.90
2023-03-15T00:31:09.344Z,14.10
2023-03-15T00:33:38.637Z,14.73
2023-03-15T00:36:08.670Z,9.93
2023-03-15T00:38:37.894Z,14.30
2023-03-15T00:41:07.337Z,12.53
2023-03-15T00:43:35.643Z,12.27
2023-03-15T00:46:04.620Z,9.33
2023-03-15T00:48:33.263Z,9.33
2023-03-15T00:51:11.862Z,9.03
2023-03-15T00:53:41.707Z,8.80
2023-03-15T00:56:12.130Z,9.00
2023-03-15T00:58:40.689Z,8.67
2023-03-15T01:01:09.395Z,12.93
2023-03-15T01:03:39.264Z,6.90
2023-03-15T01:06:10.200Z,6.47
2023-03-15T01:08:38.128Z,5.77
2023-03-15T01:11:07.314Z,6.40
2023-03-15T01:13:35.770Z,6.37
2023-03-15T01:16:03.967Z,5.97
2023-03-15T01:18:32.443Z,5.30
2023-03-15T01:21:00.672Z,5.17
2023-03-15T01:23:29.951Z,4.67
2023-03-15T01:26:01.036Z,4.57
2023-03-15T01:28:29.254Z,5.00
2023-03-15T01:30:59.858Z,6.17
2023-03-15T01:33:28.265Z,4.93
2023-03-15T01:36:00.963Z,5.70
2023-03-15T01:38:31.145Z,4.63
2023-03-15T01:40:59.445Z,4.97
2023-03-15T01:43:28.583Z,5.33
2023-03-15T01:46:15.626Z,7.23
2023-03-15T01:48:49.742Z,4.30
2023-03-15T01:51:25.706Z,4.70
2023-03-15T01:54:01.540Z,4.60
2023-03-15T01:56:32.963Z,4.90
2023-03-15T01:59:02.589Z,4.93
2023-03-15T02:01:31.846Z,5.87
2023-03-15T02:04:04.202Z,4.87
2023-03-15T02:06:36.062Z,5.77
2023-03-15T02:09:09.814Z,5.33
2023-03-15T02:11:40.712Z,5.10
2023-03-15T02:14:12.961Z,8.10
2023-03-15T02:16:44.253Z,5.77
2023-03-15T02:19:30.414Z,6.73
2023-03-15T02:22:07.167Z,7.37
2023-03-15T02:24:43.934Z,8.50
2023-03-15T02:27:12.210Z,5.97
2023-03-15T02:29:42.072Z,5.57
2023-03-15T02:32:10.283Z,8.43
2023-03-15T02:34:38.207Z,8.47
2023-03-15T02:37:06.169Z,7.03
2023-03-15T02:39:34.102Z,9.10
2023-03-15T02:42:02.830Z,11.17
2023-03-15T02:44:33.727Z,7.60
2023-03-15T02:47:08.291Z,7.03
2023-03-15T02:49:40.524Z,6.43
2023-03-15T02:52:10.024Z,6.13
2023-03-15T02:54:39.259Z,7.50
2023-03-15T02:57:09.430Z,4.93
2023-03-15T02:59:37.513Z,6.43
2023-03-15T03:02:07.801Z,5.17
2023-03-15T03:04:35.983Z,5.20
2023-03-15T03:07:04.202Z,4.93
2023-03-15T03:09:50.542Z,5.27
2023-03-15T03:12:20.176Z,4.60
2023-03-15T03:14:48.863Z,5.53
2023-03-15T03:17:21.286Z,5.67
2023-03-15T03:19:49.748Z,4.67
2023-03-15T03:22:24.556Z,4.17
2023-03-15T03:24:52.988Z,3.57
2023-03-15T03:27:21.388Z,4.40
2023-03-15T03:29:50.167Z,4.10
2023-03-15T03:32:18.136Z,3.50
2023-03-15T03:34:48.314Z,2.90
2023-03-15T03:37:18.652Z,2.67
2023-03-15T03:40:11.457Z,3.47
2023-03-15T03:42:40.214Z,3.77
2023-03-15T03:45:09.561Z,4.23
2023-03-15T03:47:42.590Z,3.97
2023-03-15T03:50:12.921Z,4.17
2023-03-15T03:52:43.741Z,4.57
2023-03-15T03:55:16.012Z,5.33
2023-03-15T03:57:45.095Z,5.17
2023-03-15T04:00:21.510Z,7.97
2023-03-15T04:02:49.634Z,4.80
2023-03-15T04:05:19.647Z,5.13
2023-03-15T04:07:47.703Z,6.47
2023-03-15T04:10:17.722Z,7.00
2023-03-15T04:12:49.198Z,7.43
2023-03-15T04:15:17.374Z,7.30
2023-03-15T04:17:45.691Z,6.70
2023-03-15T04:20:13.802Z,6.43
2023-03-15T04:22:49.514Z,6.60
2023-03-15T04:25:43.954Z,6.60
2023-03-15T04:28:24.060Z,8.00
2023-03-15T04:31:10.409Z,7.23
2023-03-15T04:33:58.620Z,8.97
2023-03-15T04:36:45.144Z,10.03
2023-03-15T04:39:34.636Z,8.30
2023-03-15T04:42:27.661Z,9.60
2023-03-15T04:45:19.632Z,10.07
2023-03-15T04:48:22.969Z,9.47
2023-03-15T04:51:08.265Z,11.03
2023-03-15T04:54:05.578Z,8.10
2023-03-15T04:56:53.735Z,12.97
2023-03-15T04:59:31.091Z,9.40
2023-03-15T05:02:11.276Z,9.53
2023-03-15T05:04:58.906Z,8.40
2023-03-15T05:07:45.617Z,9.10
2023-03-15T05:10:37.547Z,8.80
2023-03-15T05:13:20.798Z,10.17
2023-03-15T05:16:04.229Z,11.37
2023-03-15T05:18:57.914Z,9.60
2023-03-15T05:21:38.477Z,12.43
2023-03-15T05:24:27.834Z,10.77
2023-03-15T05:27:28.333Z,9.80
2023-03-15T05:30:15.240Z,11.10
2023-03-15T05:33:15.401Z,9.57
2023-03-15T05:35:56.595Z,15.17
2023-03-15T05:38:36.406Z,11.03
2023-03-15T05:41:36.849Z,14.07
2023-03-15T05:44:30.718Z,11.00
2023-03-15T05:47:18.623Z,11.07
2023-03-15T05:50:01.622Z,12.27
2023-03-15T05:52:41.158Z,12.00
2023-03-15T05:55:44.515Z,14.33
2023-03-15T05:58:27.108Z,13.37
2023-03-15T06:01:13.963Z,13.27
2023-03-15T06:04:03.909Z,13.37
2023-03-15T06:06:33.995Z,12.63
2023-03-15T06:09:03.445Z,14.63
2023-03-15T06:11:31.464Z,17.57
2023-03-15T06:14:00.761Z,13.13
2023-03-15T06:16:43.130Z,13.00
2023-03-15T06:19:12.339Z,14.00
2023-03-15T06:21:40.402Z,16.23
2023-03-15T06:24:22.865Z,13.87
2023-03-15T06:26:50.841Z,13.10
2023-03-15T06:29:19.181Z,13.53
2023-03-15T06:31:49.495Z,17.17
2023-03-15T06:34:21.002Z,13.73
2023-03-15T06:36:49.775Z,14.20
2023-03-15T06:39:18.188Z,17.17
2023-03-15T06:41:46.301Z,15.67
2023-03-15T06:44:20.217Z,14.27
2023-03-15T06:46:52.257Z,15.67
2023-03-15T06:49:21.596Z,18.63
2023-03-15T06:51:50.500Z,14.77
2023-03-15T06:54:18.747Z,16.80
2023-03-15T06:56:46.699Z,16.87
2023-03-15T06:59:14.756Z,17.63
2023-03-15T07:01:42.881Z,12.63
2023-03-15T07:04:10.780Z,13.57
2023-03-15T07:06:40.102Z,13.63
2023-03-15T07:09:08.082Z,15.00
2023-03-15T07:11:36.325Z,12.87
2023-03-15T07:14:04.216Z,22.67
2023-03-15T07:16:32.098Z,14.10
2023-03-15T07:19:00.096Z,17.07
2023-03-15T07:21:28.332Z,15.57
2023-03-15T07:23:57.555Z,11.40
2023-03-15T07:26:25.495Z,15.00
2023-03-15T07:28:53.415Z,14.40
2023-03-15T07:31:22.196Z,12.23
2023-03-15T07:33:50.201Z,14.27
2023-03-15T07:36:18.260Z,12.07
2023-03-15T07:38:46.246Z,12.97
2023-03-15T07:41:15.661Z,14.73
2023-03-15T07:43:56.925Z,16.70
2023-03-15T07:46:26.318Z,13.60
2023-03-15T07:48:54.202Z,14.37
2023-03-15T07:51:22.153Z,14.60
2023-03-15T07:53:50.688Z,14.57
2023-03-15T07:56:19.977Z,14.10
2023-03-15T07:58:48.051Z,17.30
2023-03-15T08:01:15.979Z,12.13
2023-03-15T08:03:43.881Z,13.23
2023-03-15T08:06:11.845Z,13.73
2023-03-15T08:08:40.404Z,11.83
2023-03-15T08:11:08.340Z,12.47
2023-03-15T08:13:37.619Z,13.13
2023-03-15T08:16:06.068Z,13.10
2023-03-15T08:18:34.034Z,13.33
2023-03-15T08:21:01.954Z,13.07
2023-03-15T08:23:29.956Z,13.13
2023-03-15T08:25:57.925Z,11.60
2023-03-15T08:28:25.920Z,12.33
2023-03-15T08:30:55.158Z,12.43
2023-03-15T08:33:23.217Z,12.30
2023-03-15T08:35:54.193Z,15.93
2023-03-15T08:38:22.397Z,11.27
2023-03-15T08:40:50.378Z,9.97
2023-03-15T08:43:18.304Z,11.00
2023-03-15T08:46:00.152Z,9.60
2023-03-15T08:48:31.439Z,9.97
2023-03-15T08:51:04.024Z,11.00
2023-03-15T08:53:32.209Z,9.03
2023-03-15T08:56:00.764Z,7.10
2023-03-15T08:58:28.740Z,9.33
2023-03-15T09:00:57.381Z,10.77
2023-03-15T09:03:25.285Z,8.40
2023-03-15T09:05:58.550Z,10.37
2023-03-15T09:08:27.330Z,10.97
2023-03-15T09:10:56.152Z,9.80
2023-03-15T09:13:24.392Z,11.20
2023-03-15T09:15:55.327Z,10.20
2023-03-15T09:18:24.107Z,11.60
2023-03-15T09:20:52.042Z,9.40
2023-03-15T09:23:21.363Z,7.30
2023-03-15T09:25:49.601Z,7.70
2023-03-15T09:28:17.660Z,8.40
2023-03-15T09:30:45.618Z,8.47
2023-03-15T09:33:14.670Z,10.30
2023-03-15T09:35:42.867Z,8.10
2023-03-15T09:38:11.665Z,7.43
2023-03-15T09:40:44.986Z,9.50
2023-03-15T09:43:39.912Z,6.37
2023-03-15T09:46:18.292Z,7.60
2023-03-15T09:48:53.248Z,6.10
2023-03-15T09:51:35.538Z,8.23
2023-03-15T09:54:09.109Z,5.63
2023-03-15T09:56:45.492Z,18.70
2023-03-15T09:59:16.312Z,6.13
2023-03-15T10:01:45.237Z,4.47
2023-03-15T10:04:19.947Z,8.87
2023-03-15T10:06:53.285Z,5.50
2023-03-15T10:09:24.376Z,6.43
2023-03-15T10:12:02.246Z,9.50
2023-03-15T10:14:53.743Z,6.80
2023-03-15T10:17:27.385Z,6.53
2023-03-15T10:20:01.399Z,5.03
2023-03-15T10:22:33.927Z,4.10
2023-03-15T10:25:07.747Z,5.60
2023-03-15T10:27:43.053Z,4.10
2023-03-15T10:30:17.910Z,4.27
2023-03-15T10:32:52.921Z,7.73
2023-03-15T10:35:22.423Z,4.37
2023-03-15T10:37:50.585Z,4.03
2023-03-15T10:40:40.222Z,5.33
2023-03-15T10:43:18.568Z,3.93
2023-03-15T10:45:48.956Z,5.67
2023-03-15T10:48:17.015Z,5.73
2023-03-15T10:50:44.948Z,6.93
2023-03-15T10:53:20.540Z,4.37
2023-03-15T10:55:50.582Z,3.83
2023-03-15T10:58:27.991Z,2.93
2023-03-15T11:01:03.350Z,3.73
2023-03-15T11:03:32.139Z,3.67
2023-03-15T11:06:00.776Z,3.70
2023-03-15T11:08:38.604Z,2.03
2023-03-15T11:11:07.608Z,3.83
2023-03-15T11:13:38.204Z,2.50
2023-03-15T11:16:09.837Z,5.60
2023-03-15T11:18:48.092Z,3.27
2023-03-15T11:21:19.743Z,4.73
2023-03-15T11:23:50.170Z,6.13
2023-03-15T11:26:32.193Z,3.83
2023-03-15T11:29:07.390Z,4.43
2023-03-15T11:31:36.661Z,2.73
2023-03-15T11:34:08.986Z,2.43
2023-03-15T11:36:41.014Z,4.03
2023-03-15T11:39:15.215Z,1.67
2023-03-15T11:41:48.473Z,3.60
2023-03-15T11:44:26.812Z,5.10
2023-03-15T11:47:02.198Z,5.00
2023-03-15T11:49:37.846Z,7.20
2023-03-15T11:52:06.565Z,4.67
2023-03-15T11:54:34.684Z,3.60
2023-03-15T11:57:06.271Z,3.10
2023-03-15T11:59:38.103Z,2.40
2023-03-15T12:02:37.365Z,3.43
2023-03-15T12:05:17.850Z,3.03
2023-03-15T12:08:00.544Z,2.20
2023-03-15T12:10:35.472Z,4.50
2023-03-15T12:13:21.403Z,3.33
2023-03-15T12:15:51.101Z,4.17
2023-03-15T12:18:34.864Z,2.77
2023-03-15T12:21:12.905Z,2.10
2023-03-15T12:23:44.687Z,2.70
2023-03-15T12:26:25.614Z,3.33
2023-03-15T12:29:17.737Z,2.13
2023-03-15T12:31:56.679Z,3.33
2023-03-15T12:34:29.347Z,2.80
2023-03-15T12:37:01.953Z,2.07
2023-03-15T12:40:01.489Z,3.60
2023-03-15T12:43:11.308Z,3.17
2023-03-15T12:45:47.397Z,1.83
2023-03-15T12:48:22.007Z,3.17
2023-03-15T12:50:53.582Z,2.50
2023-03-15T12:53:26.535Z,2.73
2023-03-15T12:56:06.182Z,2.07
2023-03-15T12:58:38.092Z,2.93
2023-03-15T13:01:08.382Z,1.87
2023-03-15T13:03:38.206Z,2.67
2023-03-15T13:06:14.416Z,1.93
2023-03-15T13:08:48.364Z,2.83
2023-03-15T13:11:21.518Z,2.30
2023-03-15T13:14:08.017Z,3.53
2023-03-15T13:16:40.047Z,3.03
2023-03-15T13:19:18.324Z,1.90
2023-03-15T13:22:03.749Z,2.17
2023-03-15T13:24:42.812Z,2.90
2023-03-15T13:27:29.199Z,1.97
2023-03-15T13:29:57.565Z,1.83
2023-03-15T13:32:25.661Z,4.73
2023-03-15T13:34:57.784Z,2.53
2023-03-15T13:37:29.072Z,2.80
2023-03-15T13:40:01.246Z,3.23
2023-03-15T13:42:29.483Z,4.93
2023-03-15T13:45:14.768Z,3.13
2023-03-15T13:47:44.460Z,2.60
2023-03-15T13:50:17.619Z,5.10
2023-03-15T13:52:45.997Z,9.37
2023-03-15T13:55:15.604Z,3.00
2023-03-15T13:57:43.694Z,4.00
2023-03-15T14:00:14.460Z,6.77
2023-03-15T14:02:49.046Z,2.57
2023-03-15T14:05:27.367Z,2.53
2023-03-15T14:07:59.927Z,2.57
2023-03-15T14:10:31.261Z,2.83
2023-03-15T14:13:15.805Z,1.83
2023-03-15T14:15:45.133Z,4.23
2023-03-15T14:18:20.445Z,2.57
2023-03-15T14:20:59.908Z,3.07
2023-03-15T14:23:29.520Z,2.47
2023-03-15T14:26:03.225Z,2.40
2023-03-15T14:28:32.708Z,2.33
2023-03-15T14:31:02.247Z,1.73
2023-03-15T14:33:33.571Z,2.43
2023-03-15T14:36:05.415Z,2.93
2023-03-15T14:38:39.033Z,2.77
2023-03-15T14:41:23.773Z,1.80
2023-03-15T14:43:51.823Z,1.70
2023-03-15T14:46:19.807Z,1.17
2023-03-15T14:48:48.238Z,2.60
2023-03-15T14:51:20.069Z,1.90
2023-03-15T14:53:53.112Z,2.20
2023-03-15T14:56:21.124Z,1.80
2023-03-15T14:58:49.403Z,2.67
2023-03-15T15:01:22.442Z,2.10
2023-03-15T15:03:54.561Z,3.13
2023-03-15T15:06:23.871Z,4.13
2023-03-15T15:08:56.252Z,2.97
2023-03-15T15:11:24.314Z,1.70
2023-03-15T15:13:52.440Z,2.40
2023-03-15T15:16:20.511Z,2.07
2023-03-15T15:18:48.564Z,2.87
2023-03-15T15:21:22.548Z,1.77
2023-03-15T15:23:58.349Z,2.00
2023-03-15T15:26:29.189Z,2.03
2023-03-15T15:28:57.405Z,3.77
2023-03-15T15:31:27.291Z,1.83
2023-03-15T15:33:57.171Z,2.93
2023-03-15T15:36:27.814Z,2.43
2023-03-15T15:38:57.151Z,2.00
2023-03-15T15:41:26.642Z,2.33
2023-03-15T15:43:55.029Z,2.73
2023-03-15T15:46:23.940Z,1.70
2023-03-15T15:48:52.189Z,2.47
2023-03-15T15:51:26.064Z,2.67
2023-03-15T15:53:54.758Z,2.40
2023-03-15T15:56:30.634Z,2.30
2023-03-15T15:58:59.298Z,3.97
2023-03-15T16:01:27.382Z,1.57
2023-03-15T16:03:55.409Z,2.97
2023-03-15T16:06:23.918Z,1.97
2023-03-15T16:08:53.990Z,1.57
2023-03-15T16:11:22.131Z,2.30
2023-03-15T16:13:54.196Z,2.37
2023-03-15T16:16:22.830Z,2.87
2023-03-15T16:18:51.076Z,2.57
2023-03-15T16:21:24.395Z,1.90
2023-03-15T16:23:59.014Z,2.80
2023-03-15T16:26:27.084Z,3.00
2023-03-15T16:28:56.476Z,2.00
2023-03-15T16:31:24.457Z,2.87
2023-03-15T16:33:52.450Z,2.83
2023-03-15T16:36:22.019Z,2.47
2023-03-15T16:38:50.721Z,3.13
2023-03-15T16:41:19.033Z,3.20
2023-03-15T16:43:49.207Z,2.40
2023-03-15T16:46:18.878Z,3.60
2023-03-15T16:48:46.928Z,2.77
2023-03-15T16:51:17.030Z,3.23
2023-03-15T16:53:45.461Z,2.43
2023-03-15T16:56:15.227Z,2.17
2023-03-15T16:58:44.399Z,3.50
2023-03-15T17:01:12.590Z,4.07
2023-03-15T17:03:42.219Z,3.10
2023-03-15T17:06:20.007Z,4.40
2023-03-15T17:08:48.784Z,2.30
2023-03-15T17:11:17.260Z,2.60
2023-03-15T17:13:45.706Z,2.33
2023-03-15T17:16:15.161Z,3.27
2023-03-15T17:18:46.880Z,3.30
2023-03-15T17:21:16.840Z,3.13
2023-03-15T17:23:45.988Z,3.93
2023-03-15T17:26:15.307Z,4.23
2023-03-15T17:28:44.058Z,3.83
2023-03-15T17:31:24.685Z,4.50
2023-03-15T17:33:54.841Z,3.13
2023-03-15T17:36:24.684Z,2.87
2023-03-15T17:38:53.322Z,2.63
2023-03-15T17:41:22.876Z,4.17
2023-03-15T17:43:52.682Z,4.70
2023-03-15T17:46:22.423Z,4.03
2023-03-15T17:48:50.860Z,3.70
2023-03-15T17:51:23.196Z,3.30
2023-03-15T17:53:52.167Z,3.27
2023-03-15T17:56:22.859Z,3.93
2023-03-15T17:58:51.049Z,4.20
2023-03-15T18:01:21.213Z,4.93
2023-03-15T18:03:50.597Z,4.70
2023-03-15T18:06:21.680Z,7.00
2023-03-15T18:08:50.052Z,8.93
2023-03-15T18:11:24.335Z,6.13
2023-03-15T18:13:52.834Z,6.83
2023-03-15T18:16:21.174Z,4.37
2023-03-15T18:18:49.218Z,6.10
2023-03-15T18:21:19.729Z,5.47
2023-03-15T18:23:50.548Z,7.13
2023-03-15T18:26:19.779Z,8.40
2023-03-15T18:28:49.341Z,4.60
2023-03-15T18:31:20.233Z,5.07
2023-03-15T18:33:48.652Z,6.13
2023-03-15T18:36:16.720Z,4.80
2023-03-15T18:38:44.950Z,6.47
2023-03-15T18:41:20.335Z,5.70
2023-03-15T18:43:51.336Z,5.00
2023-03-15T18:46:20.301Z,6.87
2023-03-15T18:48:49.797Z,4.40
2023-03-15T18:51:18.351Z,4.30
2023-03-15T18:53:46.843Z,5.87
2023-03-15T18:56:19.245Z,4.97
2023-03-15T18:58:48.121Z,5.63
2023-03-15T19:01:16.545Z,4.77
2023-03-15T19:03:45.044Z,4.50
2023-03-15T19:06:13.821Z,6.73
2023-03-15T19:08:42.130Z,6.70
2023-03-15T19:11:10.624Z,5.90
2023-03-15T19:13:39.963Z,6.90
2023-03-15T19:16:08.235Z,7.03
2023-03-15T19:18:36.332Z,6.37
2023-03-15T19:21:04.455Z,5.10
2023-03-15T19:23:34.331Z,4.57
2023-03-15T19:26:02.402Z,5.07
2023-03-15T19:28:31.288Z,6.53
2023-03-15T19:31:00.681Z,5.37
2023-03-15T19:33:28.648Z,5.90
2023-03-15T19:35:56.896Z,6.47
2023-03-15T19:38:24.875Z,5.57
2023-03-15T19:40:55.228Z,7.57
2023-03-15T19:43:24.062Z,8.03
2023-03-15T19:45:52.161Z,9.20
2023-03-15T19:48:21.501Z,6.87
2023-03-15T19:50:49.632Z,6.70
2023-03-15T19:53:17.964Z,7.23
2023-03-15T19:55:45.933Z,5.23
2023-03-15T19:58:14.520Z,6.83
2023-03-15T20:00:42.442Z,6.90
2023-03-15T20:03:12.455Z,6.57
2023-03-15T20:05:41.913Z,5.83
2023-03-15T20:08:10.377Z,6.63
2023-03-15T20:10:38.447Z,7.60
2023-03-15T20:13:06.390Z,7.73
2023-03-15T20:15:34.318Z,6.37
2023-03-15T20:18:02.434Z,8.43
2023-03-15T20:20:30.870Z,6.67
2023-03-15T20:23:00.147Z,6.57
2023-03-15T20:25:28.105Z,8.00
2023-03-15T20:27:56.928Z,9.43
2023-03-15T20:30:25.190Z,8.37
2023-03-15T20:32:53.417Z,7.77
2023-03-15T20:35:21.388Z,7.23
2023-03-15T20:37:49.416Z,6.43
2023-03-15T20:40:19.027Z,7.37
2023-03-15T20:42:46.957Z,7.00
2023-03-15T20:45:15.296Z,6.80
2023-03-15T20:47:43.446Z,8.60
2023-03-15T20:50:13.072Z,6.63
2023-03-15T20:52:42.892Z,8.20
2023-03-15T20:55:11.686Z,6.20
2023-03-15T20:57:42.833Z,7.70
2023-03-15T21:00:18.371Z,7.77
2023-03-15T21:02:47.691Z,6.53
2023-03-15T21:05:17.292Z,8.80
2023-03-15T21:07:46.251Z,6.97
2023-03-15T21:10:14.999Z,7.23
2023-03-15T21:12:45.133Z,6.60
2023-03-15T21:15:17.404Z,6.33
2023-03-15T21:17:45.841Z,7.30
2023-03-15T21:20:15.545Z,8.13
2023-03-15T21:22:43.718Z,7.50
2023-03-15T21:25:13.428Z,8.10
2023-03-15T21:27:41.664Z,6.27
2023-03-15T21:30:14.503Z,8.37
2023-03-15T21:32:45.198Z,8.53
2023-03-15T21:35:13.758Z,6.83
2023-03-15T21:37:41.845Z,10.00
2023-03-15T21:40:11.648Z,8.20
2023-03-15T21:42:39.932Z,7.07
2023-03-15T21:45:09.423Z,6.67
2023-03-15T21:47:38.957Z,6.10
2023-03-15T21:50:08.434Z,8.87
2023-03-15T21:52:36.492Z,6.93
2023-03-15T21:55:06.064Z,7.97
2023-03-15T21:57:34.577Z,6.17
2023-03-15T22:00:02.503Z,6.80
2023-03-15T22:02:41.122Z,6.10
2023-03-15T22:05:10.951Z,6.43
2023-03-15T22:07:39.011Z,7.80
2023-03-15T22:10:09.628Z,6.07
2023-03-15T22:12:37.836Z,6.03
2023-03-15T22:15:07.558Z,7.43
2023-03-15T22:17:36.189Z,7.20
2023-03-15T22:20:09.068Z,5.57
2023-03-15T22:22:37.062Z,7.70
2023-03-15T22:25:05.188Z,6.20
2023-03-15T22:27:33.087Z,6.33
2023-03-15T22:30:00.984Z,7.47
2023-03-15T22:32:28.955Z,6.73
2023-03-15T22:34:56.933Z,6.00
2023-03-15T22:37:26.232Z,6.53
2023-03-15T22:39:54.139Z,7.90
2023-03-15T22:42:22.103Z,8.43
2023-03-15T22:44:50.135Z,9.17
2023-03-15T22:47:18.097Z,7.40
2023-03-15T22:49:46.086Z,8.50
2023-03-15T22:52:14.356Z,6.77
2023-03-15T22:54:43.621Z,6.73
2023-03-15T22:57:12.316Z,7.43
2023-03-15T22:59:40.551Z,5.77
2023-03-15T23:02:08.807Z,6.67
2023-03-15T23:04:36.904Z,6.13
2023-03-15T23:07:04.992Z,6.40
2023-03-15T23:09:32.902Z,7.03
2023-03-15T23:12:02.162Z,8.60
2023-03-15T23:14:30.180Z,6.73
2023-03-15T23:16:58.087Z,7.03
2023-03-15T23:19:26.151Z,7.73
2023-03-15T23:21:54.066Z,6.77
2023-03-15T23:24:24.579Z,6.80
2023-03-15T23:26:56.479Z,7.53
2023-03-15T23:29:25.817Z,7.17
2023-03-15T23:31:53.828Z,8.10
2023-03-15T23:34:23.385Z,7.93
2023-03-15T23:36:51.418Z,9.17
2023-03-15T23:39:19.969Z,7.33
2023-03-15T23:41:48.722Z,6.93
2023-03-15T23:44:17.148Z,8.83
2023-03-15T23:46:46.483Z,7.43
2023-03-15T23:49:14.444Z,8.63
2023-03-15T23:51:43.964Z,8.33
2023-03-15T23:54:11.986Z,6.67
2023-03-15T23:56:40.294Z,6.27
2023-03-15T23:59:08.213Z,9.37
